This is the latest recevied weather packets stored in our database for station/object G0AMO. If no packets are shown the sender has not sent any weather packets the latest 10 day(s).
| Time | Temp. | Humidity | Pressure | Rain* | Wind** | Luminosity | Snow |
|---|---|---|---|---|---|---|---|
| 1777319404 | 15.56° C | 64% | 1023.4 hPa | 0 mm | - | 0 W/m² | - |
| 1777317304 | 16.11° C | 62% | 1023.4 hPa | 0 mm | - | 0 W/m² | - |
| 1777314604 | 17.22° C | 52% | 1022.4 hPa | 0 mm | - | 0 W/m² | - |
| 1777313704 | 17.78° C | 52% | 1022.7 hPa | 0 mm | - | 0 W/m² | - |
| 1777313404 | 17.78° C | 51% | 1022.7 hPa | 0 mm | - | 0 W/m² | - |
| 1777306504 | 19.44° C | 45% | 1023 hPa | 0 mm | - | 548 W/m² | - |
| 1777304104 | 21.11° C | 39% | 1023 hPa | 0 mm | - | 745 W/m² | - |
| 1777303504 | 21.11° C | 39% | 1023 hPa | 0 mm | - | 793 W/m² | - |
| 1777302004 | 21.11° C | 37% | 1023 hPa | 0 mm | - | 908 W/m² | - |
| 1777300804 | 21.11° C | 38% | 1023.7 hPa | 0 mm | - | 994 W/m² | - |
| 1777300205 | 20.56° C | 37% | 1023.9 hPa | 0 mm | - | 1034 W/m² | - |
| 1777297805 | 20.56° C | 37% | 1024 hPa | 0 mm | - | 1169 W/m² | - |
| 1777296904 | 20.56° C | 38% | 1024.4 hPa | 0 mm | - | 1208 W/m² | - |
| 1777294505 | 19.44° C | 39% | 1024.4 hPa | 0 mm | - | 1276 W/m² | - |
| 1777293604 | 20° C | 36% | 1024.7 hPa | 0 mm | - | 1287 W/m² | - |
| 1777286404 | 18.33° C | 46% | 1025.4 hPa | 0 mm | - | 1089 W/m² | - |
| 1777284304 | 17.78° C | 47% | 1025.7 hPa | 0 mm | - | 952 W/m² | - |
| 1777283705 | 17.22° C | 50% | 1025.7 hPa | 0 mm | - | 908 W/m² | - |
| 1777282205 | 17.22° C | 51% | 1025.7 hPa | 0 mm | - | 793 W/m² | - |
| 1777276805 | 15.56° C | 53% | 1026.1 hPa | 0 mm | - | 356 W/m² | - |
| 1777274704 | 12.22° C | 70% | 1026.4 hPa | 0 mm | - | 202 W/m² | - |
| 1777273505 | 10° C | 74% | 1026.1 hPa | 0 mm | - | 124 W/m² | - |
| 1777272304 | 11.11° C | 71% | 1026.1 hPa | 0 mm | - | 54 W/m² | - |
| 1777272005 | 11.11° C | 70% | 1026.1 hPa | 0 mm | - | 38 W/m² | - |
| 1777268704 | 5° C | 91% | 1024.7 hPa | 0 mm | - | 0 W/m² | - |
* Rain latest hour (hover to see other rain measurements)
** Current wind speed in m/s (hover to see current wind gust speed)